sensor_id;sensor_type;location;lat;lon;timestamp;noise_LAeq;noise_LA_min;noise_LA_max;noise_LA01;noise_LA95
74292;Laerm;62687;55.738;37.516;2023-04-15T00:00:49;72.19;59.45;90.46;;
74292;Laerm;62687;55.738;37.516;2023-04-15T00:03:35;67.82;57.80;73.64;;
74292;Laerm;62687;55.738;37.516;2023-04-15T00:06:20;68.89;60.94;79.34;;
74292;Laerm;62687;55.738;37.516;2023-04-15T00:09:05;67.80;58.44;77.85;;
74292;Laerm;62687;55.738;37.516;2023-04-15T00:11:49;68.61;59.20;82.17;;
74292;Laerm;62687;55.738;37.516;2023-04-15T00:14:36;67.61;60.82;73.57;;
74292;Laerm;62687;55.738;37.516;2023-04-15T00:17:20;68.21;58.29;74.63;;
74292;Laerm;62687;55.738;37.516;2023-04-15T00:20:05;66.99;58.75;72.89;;
74292;Laerm;62687;55.738;37.516;2023-04-15T00:22:49;68.58;61.83;73.36;;
74292;Laerm;62687;55.738;37.516;2023-04-15T00:25:33;67.14;59.85;73.45;;
74292;Laerm;62687;55.738;37.516;2023-04-15T00:28:17;67.32;55.40;74.25;;
74292;Laerm;62687;55.738;37.516;2023-04-15T00:31:01;67.06;56.67;73.62;;
74292;Laerm;62687;55.738;37.516;2023-04-15T00:33:46;68.43;57.44;80.41;;
74292;Laerm;62687;55.738;37.516;2023-04-15T00:36:30;67.36;57.46;74.46;;
74292;Laerm;62687;55.738;37.516;2023-04-15T00:39:15;67.65;57.27;84.66;;
74292;Laerm;62687;55.738;37.516;2023-04-15T00:41:59;67.04;54.04;73.18;;
74292;Laerm;62687;55.738;37.516;2023-04-15T00:44:43;67.45;55.66;72.97;;
74292;Laerm;62687;55.738;37.516;2023-04-15T00:47:28;67.28;55.17;73.29;;
74292;Laerm;62687;55.738;37.516;2023-04-15T00:50:12;67.07;59.19;72.50;;
74292;Laerm;62687;55.738;37.516;2023-04-15T00:52:56;66.25;58.64;72.62;;
74292;Laerm;62687;55.738;37.516;2023-04-15T00:55:41;67.00;57.87;73.70;;
74292;Laerm;62687;55.738;37.516;2023-04-15T00:58:25;67.42;58.28;79.88;;
74292;Laerm;62687;55.738;37.516;2023-04-15T01:01:10;68.35;56.96;83.98;;
74292;Laerm;62687;55.738;37.516;2023-04-15T01:03:56;67.64;56.85;77.15;;
74292;Laerm;62687;55.738;37.516;2023-04-15T01:06:41;67.15;58.52;73.62;;
74292;Laerm;62687;55.738;37.516;2023-04-15T01:09:25;67.43;59.23;80.46;;
74292;Laerm;62687;55.738;37.516;2023-04-15T01:12:11;66.34;56.18;72.85;;
74292;Laerm;62687;55.738;37.516;2023-04-15T01:14:58;65.89;55.97;71.97;;
74292;Laerm;62687;55.738;37.516;2023-04-15T01:17:42;66.51;53.63;72.62;;
74292;Laerm;62687;55.738;37.516;2023-04-15T01:20:26;67.26;58.40;74.77;;
74292;Laerm;62687;55.738;37.516;2023-04-15T01:23:12;66.72;57.72;74.12;;
74292;Laerm;62687;55.738;37.516;2023-04-15T01:25:57;67.72;60.19;74.05;;
74292;Laerm;62687;55.738;37.516;2023-04-15T01:28:42;67.25;55.42;73.10;;
74292;Laerm;62687;55.738;37.516;2023-04-15T01:31:26;67.74;56.12;75.39;;
74292;Laerm;62687;55.738;37.516;2023-04-15T01:34:10;65.79;52.02;75.02;;
74292;Laerm;62687;55.738;37.516;2023-04-15T01:36:55;67.46;56.46;76.08;;
74292;Laerm;62687;55.738;37.516;2023-04-15T01:39:39;66.77;59.85;73.03;;
74292;Laerm;62687;55.738;37.516;2023-04-15T01:42:23;66.45;57.25;73.68;;
74292;Laerm;62687;55.738;37.516;2023-04-15T01:45:08;67.14;56.86;74.06;;
74292;Laerm;62687;55.738;37.516;2023-04-15T01:47:52;67.04;54.02;75.02;;
74292;Laerm;62687;55.738;37.516;2023-04-15T01:50:37;67.42;57.31;74.57;;
74292;Laerm;62687;55.738;37.516;2023-04-15T01:53:21;66.93;59.49;72.34;;
74292;Laerm;62687;55.738;37.516;2023-04-15T01:56:06;66.50;58.61;71.58;;
74292;Laerm;62687;55.738;37.516;2023-04-15T01:58:50;68.08;56.43;79.21;;
74292;Laerm;62687;55.738;37.516;2023-04-15T02:01:34;65.75;53.98;73.90;;
74292;Laerm;62687;55.738;37.516;2023-04-15T02:04:19;65.97;57.95;72.64;;
74292;Laerm;62687;55.738;37.516;2023-04-15T02:07:03;66.24;55.60;71.93;;
74292;Laerm;62687;55.738;37.516;2023-04-15T02:09:47;67.74;60.09;73.12;;
74292;Laerm;62687;55.738;37.516;2023-04-15T02:12:31;67.97;59.32;73.99;;
74292;Laerm;62687;55.738;37.516;2023-04-15T02:15:15;68.59;61.34;76.31;;
74292;Laerm;62687;55.738;37.516;2023-04-15T02:17:59;68.95;60.18;83.61;;
74292;Laerm;62687;55.738;37.516;2023-04-15T02:20:44;67.25;61.13;73.15;;
74292;Laerm;62687;55.738;37.516;2023-04-15T02:23:29;68.27;55.99;76.31;;
74292;Laerm;62687;55.738;37.516;2023-04-15T02:26:14;67.37;59.51;73.90;;
74292;Laerm;62687;55.738;37.516;2023-04-15T02:28:58;68.37;57.85;74.83;;
74292;Laerm;62687;55.738;37.516;2023-04-15T02:31:42;68.69;59.58;75.63;;
74292;Laerm;62687;55.738;37.516;2023-04-15T02:34:27;67.83;59.03;73.84;;
74292;Laerm;62687;55.738;37.516;2023-04-15T02:37:13;68.23;60.69;74.32;;
74292;Laerm;62687;55.738;37.516;2023-04-15T02:39:57;68.81;60.87;82.51;;
74292;Laerm;62687;55.738;37.516;2023-04-15T02:42:41;68.58;59.02;77.48;;
74292;Laerm;62687;55.738;37.516;2023-04-15T02:45:26;67.72;60.47;72.92;;
74292;Laerm;62687;55.738;37.516;2023-04-15T02:48:11;67.70;58.79;74.03;;
74292;Laerm;62687;55.738;37.516;2023-04-15T02:51:18;68.83;60.80;74.71;;
74292;Laerm;62687;55.738;37.516;2023-04-15T02:54:02;68.88;59.86;77.79;;
74292;Laerm;62687;55.738;37.516;2023-04-15T02:56:46;67.32;58.30;73.20;;
74292;Laerm;62687;55.738;37.516;2023-04-15T02:59:30;68.57;59.91;74.53;;
74292;Laerm;62687;55.738;37.516;2023-04-15T03:02:14;68.94;61.64;77.45;;
74292;Laerm;62687;55.738;37.516;2023-04-15T03:04:59;68.40;61.94;74.35;;
74292;Laerm;62687;55.738;37.516;2023-04-15T03:07:43;68.29;60.74;74.44;;
74292;Laerm;62687;55.738;37.516;2023-04-15T03:10:27;68.97;61.07;75.09;;
74292;Laerm;62687;55.738;37.516;2023-04-15T03:13:12;69.10;61.56;75.65;;
74292;Laerm;62687;55.738;37.516;2023-04-15T03:15:56;69.90;62.13;76.50;;
74292;Laerm;62687;55.738;37.516;2023-04-15T03:18:40;68.97;60.99;74.22;;
74292;Laerm;62687;55.738;37.516;2023-04-15T03:21:24;69.86;63.07;75.72;;
74292;Laerm;62687;55.738;37.516;2023-04-15T03:24:08;70.08;62.14;79.04;;
74292;Laerm;62687;55.738;37.516;2023-04-15T03:26:53;69.44;62.93;75.39;;
74292;Laerm;62687;55.738;37.516;2023-04-15T03:29:38;69.43;59.99;74.52;;
74292;Laerm;62687;55.738;37.516;2023-04-15T03:32:22;69.22;62.80;77.15;;
74292;Laerm;62687;55.738;37.516;2023-04-15T03:35:06;69.38;61.87;74.70;;
74292;Laerm;62687;55.738;37.516;2023-04-15T03:37:51;69.94;63.62;78.44;;
74292;Laerm;62687;55.738;37.516;2023-04-15T03:40:35;70.46;62.34;77.21;;
74292;Laerm;62687;55.738;37.516;2023-04-15T03:43:19;70.54;63.70;76.68;;
74292;Laerm;62687;55.738;37.516;2023-04-15T03:46:04;70.29;62.74;75.65;;
74292;Laerm;62687;55.738;37.516;2023-04-15T03:48:48;71.35;63.85;78.49;;
74292;Laerm;62687;55.738;37.516;2023-04-15T03:51:32;70.17;62.22;76.56;;
74292;Laerm;62687;55.738;37.516;2023-04-15T03:54:16;70.17;62.77;77.19;;
74292;Laerm;62687;55.738;37.516;2023-04-15T03:57:00;69.57;61.52;76.61;;
74292;Laerm;62687;55.738;37.516;2023-04-15T03:59:44;69.66;60.03;75.39;;
74292;Laerm;62687;55.738;37.516;2023-04-15T04:02:28;70.00;62.92;77.08;;
74292;Laerm;62687;55.738;37.516;2023-04-15T04:05:13;70.46;63.83;75.32;;
74292;Laerm;62687;55.738;37.516;2023-04-15T04:07:57;70.49;63.62;79.55;;
74292;Laerm;62687;55.738;37.516;2023-04-15T04:10:41;70.75;63.27;76.32;;
74292;Laerm;62687;55.738;37.516;2023-04-15T04:13:25;70.53;64.72;75.51;;
74292;Laerm;62687;55.738;37.516;2023-04-15T04:16:09;70.76;63.82;77.05;;
74292;Laerm;62687;55.738;37.516;2023-04-15T04:18:54;71.11;63.22;78.31;;
74292;Laerm;62687;55.738;37.516;2023-04-15T04:21:38;70.88;65.04;77.30;;
74292;Laerm;62687;55.738;37.516;2023-04-15T04:24:22;71.02;65.04;76.57;;
74292;Laerm;62687;55.738;37.516;2023-04-15T04:27:07;71.21;61.13;77.24;;
74292;Laerm;62687;55.738;37.516;2023-04-15T04:29:51;71.27;64.50;80.00;;
74292;Laerm;62687;55.738;37.516;2023-04-15T04:32:35;71.73;66.07;76.11;;
74292;Laerm;62687;55.738;37.516;2023-04-15T04:35:19;71.64;64.97;77.94;;
74292;Laerm;62687;55.738;37.516;2023-04-15T04:38:03;71.87;67.24;76.17;;
74292;Laerm;62687;55.738;37.516;2023-04-15T04:40:47;71.74;64.15;77.58;;
74292;Laerm;62687;55.738;37.516;2023-04-15T04:43:31;74.33;64.93;93.40;;
74292;Laerm;62687;55.738;37.516;2023-04-15T04:46:15;71.49;66.86;75.84;;
74292;Laerm;62687;55.738;37.516;2023-04-15T04:49:00;71.75;64.66;77.66;;
74292;Laerm;62687;55.738;37.516;2023-04-15T04:51:44;71.84;65.75;75.90;;
74292;Laerm;62687;55.738;37.516;2023-04-15T04:54:29;71.56;65.61;78.58;;
74292;Laerm;62687;55.738;37.516;2023-04-15T04:57:14;72.17;65.58;78.17;;
74292;Laerm;62687;55.738;37.516;2023-04-15T04:59:58;72.34;66.90;77.18;;
74292;Laerm;62687;55.738;37.516;2023-04-15T05:02:43;71.92;66.55;77.65;;
74292;Laerm;62687;55.738;37.516;2023-04-15T05:05:27;71.85;65.56;76.42;;
74292;Laerm;62687;55.738;37.516;2023-04-15T05:08:11;71.70;66.28;78.08;;
74292;Laerm;62687;55.738;37.516;2023-04-15T05:10:56;72.16;67.71;77.45;;
74292;Laerm;62687;55.738;37.516;2023-04-15T05:13:39;71.74;66.56;76.89;;
74292;Laerm;62687;55.738;37.516;2023-04-15T05:16:24;72.32;64.94;77.86;;
74292;Laerm;62687;55.738;37.516;2023-04-15T05:19:08;72.19;65.91;77.38;;
74292;Laerm;62687;55.738;37.516;2023-04-15T05:21:53;72.56;66.64;77.69;;
74292;Laerm;62687;55.738;37.516;2023-04-15T05:24:36;71.82;65.56;78.00;;
74292;Laerm;62687;55.738;37.516;2023-04-15T05:27:21;72.18;67.73;77.78;;
74292;Laerm;62687;55.738;37.516;2023-04-15T05:30:07;71.92;66.39;76.66;;
74292;Laerm;62687;55.738;37.516;2023-04-15T05:32:51;72.71;67.47;79.24;;
74292;Laerm;62687;55.738;37.516;2023-04-15T05:35:35;72.29;66.55;78.26;;
74292;Laerm;62687;55.738;37.516;2023-04-15T05:38:19;72.26;65.98;76.47;;
74292;Laerm;62687;55.738;37.516;2023-04-15T05:41:04;72.30;66.54;76.91;;
74292;Laerm;62687;55.738;37.516;2023-04-15T05:43:48;72.84;66.58;79.10;;
74292;Laerm;62687;55.738;37.516;2023-04-15T05:46:32;72.82;65.72;82.42;;
74292;Laerm;62687;55.738;37.516;2023-04-15T05:49:16;72.35;66.94;76.61;;
74292;Laerm;62687;55.738;37.516;2023-04-15T05:52:00;72.48;68.05;77.30;;
74292;Laerm;62687;55.738;37.516;2023-04-15T05:54:44;72.56;66.99;83.29;;
74292;Laerm;62687;55.738;37.516;2023-04-15T05:57:29;72.74;67.04;83.74;;
74292;Laerm;62687;55.738;37.516;2023-04-15T06:00:13;72.38;67.38;76.45;;
74292;Laerm;62687;55.738;37.516;2023-04-15T06:02:58;71.79;66.32;76.95;;
74292;Laerm;62687;55.738;37.516;2023-04-15T06:05:43;73.26;67.40;79.10;;
74292;Laerm;62687;55.738;37.516;2023-04-15T06:08:28;73.08;68.60;78.56;;
74292;Laerm;62687;55.738;37.516;2023-04-15T06:11:12;72.29;65.82;78.32;;
74292;Laerm;62687;55.738;37.516;2023-04-15T06:13:56;73.15;68.33;87.29;;
74292;Laerm;62687;55.738;37.516;2023-04-15T06:16:41;72.52;67.41;78.74;;
74292;Laerm;62687;55.738;37.516;2023-04-15T06:19:25;73.58;69.00;83.72;;
74292;Laerm;62687;55.738;37.516;2023-04-15T06:22:09;72.60;67.21;77.73;;
74292;Laerm;62687;55.738;37.516;2023-04-15T06:24:53;72.80;68.36;77.47;;
74292;Laerm;62687;55.738;37.516;2023-04-15T06:27:38;72.22;68.39;76.52;;
74292;Laerm;62687;55.738;37.516;2023-04-15T06:30:22;72.29;67.08;75.90;;
74292;Laerm;62687;55.738;37.516;2023-04-15T06:33:06;72.48;67.72;76.29;;
74292;Laerm;62687;55.738;37.516;2023-04-15T06:35:50;72.68;68.24;77.24;;
74292;Laerm;62687;55.738;37.516;2023-04-15T06:38:34;72.65;66.25;80.75;;
74292;Laerm;62687;55.738;37.516;2023-04-15T06:41:18;72.73;67.88;76.72;;
74292;Laerm;62687;55.738;37.516;2023-04-15T06:44:03;72.37;67.68;76.08;;
74292;Laerm;62687;55.738;37.516;2023-04-15T06:46:47;72.75;67.25;78.92;;
74292;Laerm;62687;55.738;37.516;2023-04-15T06:49:31;72.90;67.99;79.30;;
74292;Laerm;62687;55.738;37.516;2023-04-15T06:52:16;71.92;66.41;75.50;;
74292;Laerm;62687;55.738;37.516;2023-04-15T06:55:00;72.52;67.40;76.12;;
74292;Laerm;62687;55.738;37.516;2023-04-15T06:57:44;72.53;67.17;77.02;;
74292;Laerm;62687;55.738;37.516;2023-04-15T07:00:29;71.96;66.34;76.44;;
74292;Laerm;62687;55.738;37.516;2023-04-15T07:03:13;72.09;66.21;78.79;;
74292;Laerm;62687;55.738;37.516;2023-04-15T07:05:57;72.64;67.93;76.70;;
74292;Laerm;62687;55.738;37.516;2023-04-15T07:08:41;71.85;66.70;75.79;;
74292;Laerm;62687;55.738;37.516;2023-04-15T07:11:26;71.79;67.17;79.20;;
74292;Laerm;62687;55.738;37.516;2023-04-15T07:14:10;72.14;66.13;77.21;;
74292;Laerm;62687;55.738;37.516;2023-04-15T07:16:54;73.66;68.14;82.90;;
74292;Laerm;62687;55.738;37.516;2023-04-15T07:19:39;72.46;67.19;76.80;;
74292;Laerm;62687;55.738;37.516;2023-04-15T07:22:24;72.31;68.28;76.97;;
74292;Laerm;62687;55.738;37.516;2023-04-15T07:25:08;72.22;67.54;78.38;;
74292;Laerm;62687;55.738;37.516;2023-04-15T07:27:53;72.42;65.94;78.19;;
74292;Laerm;62687;55.738;37.516;2023-04-15T07:30:37;72.21;67.10;76.32;;
74292;Laerm;62687;55.738;37.516;2023-04-15T07:33:22;71.72;66.18;76.25;;
74292;Laerm;62687;55.738;37.516;2023-04-15T07:36:06;73.11;67.76;81.39;;
74292;Laerm;62687;55.738;37.516;2023-04-15T07:38:50;72.57;67.35;81.60;;
74292;Laerm;62687;55.738;37.516;2023-04-15T07:41:35;72.36;66.59;82.69;;
74292;Laerm;62687;55.738;37.516;2023-04-15T07:44:19;72.38;68.45;77.37;;
74292;Laerm;62687;55.738;37.516;2023-04-15T07:47:04;72.57;67.41;78.17;;
74292;Laerm;62687;55.738;37.516;2023-04-15T07:49:48;72.63;67.12;88.85;;
74292;Laerm;62687;55.738;37.516;2023-04-15T07:52:34;71.62;66.73;78.72;;
74292;Laerm;62687;55.738;37.516;2023-04-15T07:55:22;71.97;67.43;75.94;;
74292;Laerm;62687;55.738;37.516;2023-04-15T07:58:06;72.42;66.60;77.83;;
74292;Laerm;62687;55.738;37.516;2023-04-15T08:00:50;73.09;69.01;78.95;;
74292;Laerm;62687;55.738;37.516;2023-04-15T08:03:35;72.43;67.95;76.86;;
74292;Laerm;62687;55.738;37.516;2023-04-15T08:06:19;72.15;67.72;76.19;;
74292;Laerm;62687;55.738;37.516;2023-04-15T08:09:04;71.43;67.18;75.48;;
74292;Laerm;62687;55.738;37.516;2023-04-15T08:11:48;71.68;67.37;75.10;;
74292;Laerm;62687;55.738;37.516;2023-04-15T08:14:34;72.32;67.36;77.23;;
74292;Laerm;62687;55.738;37.516;2023-04-15T08:17:18;72.13;68.62;75.74;;
74292;Laerm;62687;55.738;37.516;2023-04-15T08:20:03;71.68;66.61;77.37;;
74292;Laerm;62687;55.738;37.516;2023-04-15T08:22:48;71.81;65.39;76.44;;
74292;Laerm;62687;55.738;37.516;2023-04-15T08:25:34;71.67;66.79;75.93;;
74292;Laerm;62687;55.738;37.516;2023-04-15T08:28:19;71.31;66.42;81.55;;
74292;Laerm;62687;55.738;37.516;2023-04-15T08:31:03;71.52;67.45;84.29;;
74292;Laerm;62687;55.738;37.516;2023-04-15T08:33:47;71.96;66.59;89.07;;
74292;Laerm;62687;55.738;37.516;2023-04-15T08:36:32;71.30;66.60;75.83;;
74292;Laerm;62687;55.738;37.516;2023-04-15T08:39:16;71.55;67.35;78.62;;
74292;Laerm;62687;55.738;37.516;2023-04-15T08:42:02;71.33;65.77;79.50;;
74292;Laerm;62687;55.738;37.516;2023-04-15T08:44:46;71.59;67.30;76.51;;
74292;Laerm;62687;55.738;37.516;2023-04-15T08:47:31;71.05;65.32;75.76;;
74292;Laerm;62687;55.738;37.516;2023-04-15T08:50:16;70.98;65.66;75.21;;
74292;Laerm;62687;55.738;37.516;2023-04-15T08:53:01;71.47;65.98;76.07;;
74292;Laerm;62687;55.738;37.516;2023-04-15T08:55:50;72.20;67.20;78.79;;
74292;Laerm;62687;55.738;37.516;2023-04-15T08:58:35;71.80;66.31;75.88;;
74292;Laerm;62687;55.738;37.516;2023-04-15T09:01:20;72.36;68.10;79.78;;
74292;Laerm;62687;55.738;37.516;2023-04-15T09:04:05;71.94;68.08;77.38;;
74292;Laerm;62687;55.738;37.516;2023-04-15T09:06:50;71.75;66.49;76.36;;
74292;Laerm;62687;55.738;37.516;2023-04-15T09:09:35;71.98;67.89;79.45;;
74292;Laerm;62687;55.738;37.516;2023-04-15T09:12:20;71.22;67.12;76.73;;
74292;Laerm;62687;55.738;37.516;2023-04-15T09:15:05;71.28;65.92;75.52;;
74292;Laerm;62687;55.738;37.516;2023-04-15T09:17:49;71.52;65.75;81.12;;
74292;Laerm;62687;55.738;37.516;2023-04-15T09:20:40;71.60;65.72;79.89;;
74292;Laerm;62687;55.738;37.516;2023-04-15T09:23:27;68.80;64.00;76.00;;
74292;Laerm;62687;55.738;37.516;2023-04-15T09:26:11;68.59;64.50;78.92;;
74292;Laerm;62687;55.738;37.516;2023-04-15T09:29:02;69.25;64.85;80.22;;
74292;Laerm;62687;55.738;37.516;2023-04-15T09:31:46;70.13;64.93;82.19;;
74292;Laerm;62687;55.738;37.516;2023-04-15T09:34:36;68.69;63.02;81.18;;
74292;Laerm;62687;55.738;37.516;2023-04-15T09:37:34;68.28;63.05;74.97;;
74292;Laerm;62687;55.738;37.516;2023-04-15T09:43:19;70.80;66.25;83.75;;
74292;Laerm;62687;55.738;37.516;2023-04-15T09:46:03;71.39;66.28;88.95;;
74292;Laerm;62687;55.738;37.516;2023-04-15T09:49:06;71.85;66.63;85.53;;
74292;Laerm;62687;55.738;37.516;2023-04-15T09:51:57;71.51;65.97;84.32;;
74292;Laerm;62687;55.738;37.516;2023-04-15T09:54:43;71.37;65.99;75.05;;
74292;Laerm;62687;55.738;37.516;2023-04-15T09:57:35;71.62;66.38;75.84;;
74292;Laerm;62687;55.738;37.516;2023-04-15T10:00:19;72.03;67.59;79.20;;
74292;Laerm;62687;55.738;37.516;2023-04-15T10:03:04;71.98;67.57;76.20;;
74292;Laerm;62687;55.738;37.516;2023-04-15T10:05:51;72.28;67.94;81.78;;
74292;Laerm;62687;55.738;37.516;2023-04-15T10:08:36;71.95;68.09;76.01;;
74292;Laerm;62687;55.738;37.516;2023-04-15T10:11:21;71.96;67.88;75.95;;
74292;Laerm;62687;55.738;37.516;2023-04-15T10:14:07;70.46;65.78;79.85;;
74292;Laerm;62687;55.738;37.516;2023-04-15T10:16:55;70.75;65.01;80.75;;
74292;Laerm;62687;55.738;37.516;2023-04-15T10:19:40;71.97;68.05;79.74;;
74292;Laerm;62687;55.738;37.516;2023-04-15T10:22:25;70.85;66.33;76.57;;
74292;Laerm;62687;55.738;37.516;2023-04-15T10:25:11;70.86;65.99;76.06;;
74292;Laerm;62687;55.738;37.516;2023-04-15T10:27:56;70.87;65.59;80.38;;
74292;Laerm;62687;55.738;37.516;2023-04-15T10:30:41;70.99;67.15;82.43;;
74292;Laerm;62687;55.738;37.516;2023-04-15T10:33:27;71.50;67.61;77.29;;
74292;Laerm;62687;55.738;37.516;2023-04-15T10:36:12;71.19;67.12;75.11;;
74292;Laerm;62687;55.738;37.516;2023-04-15T10:38:58;71.97;67.47;78.41;;
74292;Laerm;62687;55.738;37.516;2023-04-15T10:41:42;71.50;66.99;76.28;;
74292;Laerm;62687;55.738;37.516;2023-04-15T10:44:27;70.75;66.79;74.62;;
74292;Laerm;62687;55.738;37.516;2023-04-15T10:47:13;71.70;67.39;76.30;;
74292;Laerm;62687;55.738;37.516;2023-04-15T10:50:00;70.71;66.57;79.96;;
74292;Laerm;62687;55.738;37.516;2023-04-15T10:52:44;72.02;67.71;80.47;;
74292;Laerm;62687;55.738;37.516;2023-04-15T10:55:32;71.31;66.82;76.17;;
74292;Laerm;62687;55.738;37.516;2023-04-15T10:58:17;71.25;65.39;83.93;;
74292;Laerm;62687;55.738;37.516;2023-04-15T11:01:01;71.06;66.34;79.57;;
74292;Laerm;62687;55.738;37.516;2023-04-15T11:03:45;71.17;66.74;76.96;;
74292;Laerm;62687;55.738;37.516;2023-04-15T11:06:43;69.23;62.13;76.32;;
74292;Laerm;62687;55.738;37.516;2023-04-15T11:09:33;66.77;62.15;72.12;;
74292;Laerm;62687;55.738;37.516;2023-04-15T11:12:18;67.59;62.21;75.81;;
74292;Laerm;62687;55.738;37.516;2023-04-15T11:15:24;66.06;60.71;72.21;;
74292;Laerm;62687;55.738;37.516;2023-04-15T11:18:16;67.27;59.93;78.16;;
74292;Laerm;62687;55.738;37.516;2023-04-15T11:21:03;66.88;62.27;70.55;;
74292;Laerm;62687;55.738;37.516;2023-04-15T11:23:47;66.53;61.17;78.04;;
74292;Laerm;62687;55.738;37.516;2023-04-15T11:26:31;66.99;62.68;72.81;;
74292;Laerm;62687;55.738;37.516;2023-04-15T11:29:18;67.50;63.34;72.72;;
74292;Laerm;62687;55.738;37.516;2023-04-15T11:32:07;69.89;63.12;77.60;;
74292;Laerm;62687;55.738;37.516;2023-04-15T11:34:52;70.85;65.77;76.38;;
74292;Laerm;62687;55.738;37.516;2023-04-15T11:37:35;71.29;67.16;75.04;;
74292;Laerm;62687;55.738;37.516;2023-04-15T11:40:28;70.54;66.06;75.38;;
74292;Laerm;62687;55.738;37.516;2023-04-15T11:43:19;70.56;64.09;77.21;;
74292;Laerm;62687;55.738;37.516;2023-04-15T11:46:04;70.78;65.60;76.34;;
74292;Laerm;62687;55.738;37.516;2023-04-15T11:48:48;71.15;66.86;75.89;;
74292;Laerm;62687;55.738;37.516;2023-04-15T11:51:34;71.00;65.95;82.35;;
74292;Laerm;62687;55.738;37.516;2023-04-15T11:54:18;70.31;65.68;76.43;;
74292;Laerm;62687;55.738;37.516;2023-04-15T11:57:03;70.84;65.09;74.62;;
74292;Laerm;62687;55.738;37.516;2023-04-15T11:59:47;71.02;64.71;81.05;;
74292;Laerm;62687;55.738;37.516;2023-04-15T12:02:31;70.68;64.73;75.21;;
74292;Laerm;62687;55.738;37.516;2023-04-15T12:05:15;71.09;66.56;78.10;;
74292;Laerm;62687;55.738;37.516;2023-04-15T12:08:00;71.37;66.07;82.57;;
74292;Laerm;62687;55.738;37.516;2023-04-15T12:10:44;71.35;66.52;77.16;;
74292;Laerm;62687;55.738;37.516;2023-04-15T12:13:28;70.54;66.22;75.92;;
74292;Laerm;62687;55.738;37.516;2023-04-15T12:16:16;71.09;66.40;76.84;;
74292;Laerm;62687;55.738;37.516;2023-04-15T12:19:14;69.68;64.77;76.80;;
74292;Laerm;62687;55.738;37.516;2023-04-15T12:22:00;70.88;66.33;75.51;;
74292;Laerm;62687;55.738;37.516;2023-04-15T12:24:44;72.49;67.98;77.25;;
74292;Laerm;62687;55.738;37.516;2023-04-15T12:27:31;71.72;66.56;75.77;;
74292;Laerm;62687;55.738;37.516;2023-04-15T12:30:15;71.52;67.63;78.12;;
74292;Laerm;62687;55.738;37.516;2023-04-15T12:32:59;71.14;66.40;76.97;;
74292;Laerm;62687;55.738;37.516;2023-04-15T12:35:45;71.29;66.33;86.11;;
74292;Laerm;62687;55.738;37.516;2023-04-15T12:38:29;71.11;67.03;74.73;;
74292;Laerm;62687;55.738;37.516;2023-04-15T12:41:14;70.85;66.47;83.17;;
74292;Laerm;62687;55.738;37.516;2023-04-15T12:43:59;70.89;66.07;75.62;;
74292;Laerm;62687;55.738;37.516;2023-04-15T12:46:43;71.87;67.28;78.65;;
74292;Laerm;62687;55.738;37.516;2023-04-15T12:49:27;71.69;67.04;76.43;;
74292;Laerm;62687;55.738;37.516;2023-04-15T12:52:12;72.19;66.56;85.68;;
74292;Laerm;62687;55.738;37.516;2023-04-15T12:54:56;71.51;67.55;75.54;;
74292;Laerm;62687;55.738;37.516;2023-04-15T12:57:40;71.57;67.06;84.65;;
74292;Laerm;62687;55.738;37.516;2023-04-15T13:00:24;71.25;67.47;75.46;;
74292;Laerm;62687;55.738;37.516;2023-04-15T13:03:08;69.57;66.04;73.92;;
74292;Laerm;62687;55.738;37.516;2023-04-15T13:05:52;71.29;66.15;84.29;;
74292;Laerm;62687;55.738;37.516;2023-04-15T13:08:36;71.08;66.69;75.84;;
74292;Laerm;62687;55.738;37.516;2023-04-15T13:11:23;71.28;66.34;76.22;;
74292;Laerm;62687;55.738;37.516;2023-04-15T13:14:09;71.25;66.56;75.77;;
74292;Laerm;62687;55.738;37.516;2023-04-15T13:16:54;70.18;66.23;77.58;;
74292;Laerm;62687;55.738;37.516;2023-04-15T13:19:38;68.00;62.81;73.83;;
74292;Laerm;62687;55.738;37.516;2023-04-15T13:22:22;69.12;63.82;73.83;;
74292;Laerm;62687;55.738;37.516;2023-04-15T13:25:07;69.77;63.98;79.32;;
74292;Laerm;62687;55.738;37.516;2023-04-15T13:27:51;70.13;64.37;75.72;;
74292;Laerm;62687;55.738;37.516;2023-04-15T13:30:37;70.84;64.93;87.92;;
74292;Laerm;62687;55.738;37.516;2023-04-15T13:33:21;70.94;64.87;78.63;;
74292;Laerm;62687;55.738;37.516;2023-04-15T13:36:05;69.41;63.91;77.52;;
74292;Laerm;62687;55.738;37.516;2023-04-15T13:38:50;70.89;65.90;82.69;;
74292;Laerm;62687;55.738;37.516;2023-04-15T13:41:34;69.49;64.88;73.76;;
74292;Laerm;62687;55.738;37.516;2023-04-15T13:44:18;71.20;66.96;76.08;;
74292;Laerm;62687;55.738;37.516;2023-04-15T13:47:02;71.14;66.17;76.47;;
74292;Laerm;62687;55.738;37.516;2023-04-15T13:49:46;71.31;66.48;75.41;;
74292;Laerm;62687;55.738;37.516;2023-04-15T13:52:31;71.57;67.04;81.02;;
74292;Laerm;62687;55.738;37.516;2023-04-15T13:55:15;70.90;66.54;77.74;;
74292;Laerm;62687;55.738;37.516;2023-04-15T13:57:59;71.05;66.88;76.03;;
74292;Laerm;62687;55.738;37.516;2023-04-15T14:00:44;71.46;66.83;76.19;;
74292;Laerm;62687;55.738;37.516;2023-04-15T14:03:28;71.87;66.26;84.07;;
74292;Laerm;62687;55.738;37.516;2023-04-15T14:06:12;71.57;66.94;80.75;;
74292;Laerm;62687;55.738;37.516;2023-04-15T14:08:57;71.30;65.15;76.44;;
74292;Laerm;62687;55.738;37.516;2023-04-15T14:11:41;71.41;67.73;77.49;;
74292;Laerm;62687;55.738;37.516;2023-04-15T14:14:25;71.12;66.94;74.96;;
74292;Laerm;62687;55.738;37.516;2023-04-15T14:17:09;71.34;67.00;82.67;;
74292;Laerm;62687;55.738;37.516;2023-04-15T14:19:53;70.49;66.36;74.18;;
74292;Laerm;62687;55.738;37.516;2023-04-15T14:22:38;70.69;65.73;78.78;;
74292;Laerm;62687;55.738;37.516;2023-04-15T14:25:23;70.63;65.57;74.34;;
74292;Laerm;62687;55.738;37.516;2023-04-15T14:28:07;70.78;65.80;76.80;;
74292;Laerm;62687;55.738;37.516;2023-04-15T14:30:51;70.96;66.77;76.76;;
74292;Laerm;62687;55.738;37.516;2023-04-15T14:33:36;70.94;66.43;79.15;;
74292;Laerm;62687;55.738;37.516;2023-04-15T14:36:20;70.62;66.67;76.40;;
74292;Laerm;62687;55.738;37.516;2023-04-15T14:39:04;70.57;66.59;74.94;;
74292;Laerm;62687;55.738;37.516;2023-04-15T14:41:49;70.39;66.75;74.95;;
74292;Laerm;62687;55.738;37.516;2023-04-15T14:44:33;72.74;66.55;85.82;;
74292;Laerm;62687;55.738;37.516;2023-04-15T14:47:17;70.00;65.53;76.18;;
74292;Laerm;62687;55.738;37.516;2023-04-15T14:50:01;70.52;66.33;75.37;;
74292;Laerm;62687;55.738;37.516;2023-04-15T14:52:46;70.97;66.54;77.46;;
74292;Laerm;62687;55.738;37.516;2023-04-15T14:55:30;70.88;66.44;80.68;;
74292;Laerm;62687;55.738;37.516;2023-04-15T14:58:15;71.40;66.62;75.89;;
74292;Laerm;62687;55.738;37.516;2023-04-15T15:00:59;72.44;66.73;83.25;;
74292;Laerm;62687;55.738;37.516;2023-04-15T15:03:44;70.50;66.21;74.06;;
74292;Laerm;62687;55.738;37.516;2023-04-15T15:06:29;71.46;67.18;81.38;;
74292;Laerm;62687;55.738;37.516;2023-04-15T15:09:13;70.50;66.08;75.62;;
74292;Laerm;62687;55.738;37.516;2023-04-15T15:11:57;70.82;65.91;81.59;;